KNSE/NSE METAR and TAF weather

Enter ICAO airport designator
Station Type Date Time Source
KNSE METAR 2022/01/19 19:56 UTC NOAA

KNSE 191956Z 14011KT 10SM SCT033 BKN050 BKN150 20/11 A3012 RMK AO2 SLP189 T02000106 $


Station Type Date Time Source
KNSE Decoded METAR 2022/01/19 19:56 UTC NOAA

MILTON WHITING FIELD (NORTH), FL, United States (KNSE) 30-44N 87-01W 60M
Jan 19, 2022 - 02:56 PM EST / 2022.01.19 1956 UTC
Wind: from the SE (140 degrees) at 13 MPH (11 KT):0
Visibility: 10 mile(s):0
Sky conditions: mostly cloudy
Temperature: 68.0 F (20.0 C)
Dew Point: 51.1 F (10.6 C)
Relative Humidity: 54%
Pressure (altimeter): 30.12 in. Hg (1019 hPa)
ob: KNSE 191956Z 14011KT 10SM SCT033 BKN050 BKN150 20/11 A3012 RMK AO2 SLP189 T02000106
cycle: 20

Station Type Date Time Source
KNSE TAF 2022/01/19 15:15 UTC NOAA

TAF KNSE 1915/2015 13008KT 9999 SCT050 SCT150 BKN250 QNH3017INS
TEMPO 1915/1918 BKN050 BKN250
FM191800 16010G15KT 9999 BKN050 BKN130 BKN250 QNH3007INS
FM192200 16008KT 9999 SCT030 BKN050 BKN250 QNH3006INS
FM200500 17008KT 9999 SCT020 BKN035 BKN250 QNH3001INS
FM201000 20010KT 9999 VCSH SCT015 BKN035 OVC050 QNH3000INS
TEMPO 2011/2014 VRB12G20KT 6000 RA BKN015 OVC030 T21/1920Z T13/2010Z FN20071

Example: see airport list